This is the latest recevied weather packets stored in our database for station/object OE6JVE-13. If no packets are shown the sender has not sent any weather packets the latest 10 day(s).
| Time | Temp. | Humidity | Pressure | Rain* | Wind** | Luminosity | Snow |
|---|---|---|---|---|---|---|---|
| 1788699625 | 27.78° C | 35% | 1015.7 hPa | 0 mm | - | - | - |
| 1788699031 | 27.78° C | 37% | 1015.6 hPa | 0 mm | - | - | - |
| 1788698439 | 27.78° C | 35% | 1015.8 hPa | 0 mm | - | - | - |
| 1788697851 | 27.22° C | 37% | 1015.9 hPa | 0 mm | - | - | - |
| 1788697255 | 27.22° C | 37% | 1016 hPa | 0 mm | - | - | - |
| 1788696663 | 27.78° C | 36% | 1015.9 hPa | 0 mm | - | - | - |
| 1788696071 | 27.78° C | 36% | 1016 hPa | 0 mm | - | - | - |
| 1788695479 | 27.78° C | 37% | 1016 hPa | 0 mm | - | - | - |
| 1788694850 | 26.67° C | 41% | 1016.2 hPa | 0 mm | - | - | - |
| 1788694231 | 26.67° C | 42% | 1016.2 hPa | 0 mm | - | - | - |
| 1788693639 | 26.67° C | 40% | 1016.2 hPa | 0 mm | - | - | - |
| 1788693045 | 26.67° C | 41% | 1016.4 hPa | 0 mm | - | - | - |
| 1788692459 | 26.11° C | 41% | 1016.6 hPa | 0 mm | - | - | - |
| 1788691860 | 26.11° C | 41% | 1016.7 hPa | 0 mm | - | - | - |
| 1788691269 | 26.11° C | 41% | 1016.8 hPa | 0 mm | - | - | - |
| 1788690677 | 26.11° C | 42% | 1017 hPa | 0 mm | - | - | - |
| 1788690019 | 25.56° C | 41% | 1017.1 hPa | 0 mm | - | - | - |
| 1788689427 | 25° C | 42% | 1017.3 hPa | 0 mm | - | - | - |
| 1788688848 | 25° C | 43% | 1017.5 hPa | 0 mm | - | - | - |
| 1788688242 | 25° C | 43% | 1017.9 hPa | 0 mm | - | - | - |
| 1788687650 | 24.44° C | 44% | 1018.1 hPa | 0 mm | - | - | - |
| 1788687058 | 24.44° C | 44% | 1018.2 hPa | 0 mm | - | - | - |
| 1788686490 | 23.89° C | 49% | 1018.5 hPa | 0 mm | - | - | - |
| 1788685874 | 22.78° C | 53% | 1018.5 hPa | 0 mm | - | - | - |
| 1788685245 | 21.67° C | 57% | 1018.6 hPa | 0 mm | - | - | - |
* Rain latest hour (hover to see other rain measurements)
** Current wind speed in m/s (hover to see current wind gust speed)